Time;durP1;ratioP1;P1;durP2;ratioP2;P2;SDS_P1;SDS_P2;PMS_P1;PMS_P2;Temp;Humidity;BMP_temperature;BMP_pressure;BME280_temperature;BME280_humidity;BME280_pressure;Samples;Min_cycle;Max_cycle;Signal;HPM_P1;HPM_P2
2022/05/08 00:00:58;;;;;;;6.42;2.77;;;;;;;14.96;41.72;100096.92;1786679;80;21644;-79
2022/05/08 00:03:35;;;;;;;5.62;2.33;;;;;;;14.93;41.66;100094.80;1786896;80;21008;-78
2022/05/08 00:09:00;;;;;;;7.70;2.92;;;;;;;14.81;41.67;100094.95;1784903;80;20999;-79
2022/05/08 00:11:27;;;;;;;5.07;2.77;;;;;;;14.79;41.63;100090.88;1786777;80;21023;-80
2022/05/08 00:14:09;;;;;;;8.38;3.05;;;;;;;14.76;41.59;100085.97;1786685;80;21445;-73
2022/05/08 00:16:40;;;;;;;7.50;3.05;;;;;;;14.72;41.64;100090.80;1783674;80;20963;-76
2022/05/08 00:19:09;;;;;;;5.87;2.75;;;;;;;14.71;41.65;100079.48;1786634;80;21508;-77
2022/05/08 00:21:42;;;;;;;8.33;2.75;;;;;;;14.66;41.77;100083.83;1782096;80;21437;-79
2022/05/08 00:24:14;;;;;;;7.62;2.77;;;;;;;14.63;41.78;100078.96;1786814;80;21559;-77
2022/05/08 00:26:43;;;;;;;12.28;3.17;;;;;;;14.59;41.81;100078.81;1785992;80;22004;-79
2022/05/08 00:31:57;;;;;;;6.95;2.42;;;;;;;14.55;41.94;100077.05;1784346;80;21560;-75
2022/05/08 00:34:28;;;;;;;8.48;2.70;;;;;;;14.51;42.02;100074.13;1781918;80;20996;-80
2022/05/08 00:36:57;;;;;;;5.45;2.58;;;;;;;14.47;42.08;100074.54;1787239;79;20956;-77
2022/05/08 00:39:28;;;;;;;6.00;2.55;;;;;;;14.46;42.19;100074.31;1788129;80;21217;-79
2022/05/08 00:42:04;;;;;;;5.17;2.30;;;;;;;14.44;42.26;100077.98;1784980;80;21492;-75
2022/05/08 00:44:33;;;;;;;6.30;2.58;;;;;;;14.41;42.46;100073.11;1760163;80;21471;-75
2022/05/08 00:46:59;;;;;;;6.87;2.80;;;;;;;14.38;42.55;100071.80;1788508;79;21504;-78
2022/05/08 00:49:27;;;;;;;8.38;2.95;;;;;;;14.36;42.63;100070.75;1788395;80;21377;-75
2022/05/08 00:52:00;;;;;;;3.92;2.55;;;;;;;14.36;42.67;100067.18;1785813;80;21139;-77
2022/05/08 00:54:27;;;;;;;4.62;2.70;;;;;;;14.36;42.76;100064.41;1756758;81;21001;-77
2022/05/08 00:57:01;;;;;;;5.20;2.58;;;;;;;14.36;42.80;100067.98;1751049;81;21522;-77
2022/05/08 00:59:33;;;;;;;10.55;2.80;;;;;;;14.35;42.87;100062.20;1742009;81;20998;-77
2022/05/08 01:02:25;;;;;;;10.25;2.77;;;;;;;14.36;42.84;100067.98;1761116;81;20935;-77
2022/05/08 01:04:59;;;;;;;6.12;2.70;;;;;;;14.35;42.84;100063.59;1769904;81;20928;-78
2022/05/08 01:07:28;;;;;;;4.42;2.72;;;;;;;14.32;42.87;100062.05;1771713;81;20868;-77
2022/05/08 01:10:06;;;;;;;4.70;2.50;;;;;;;14.31;42.97;100059.05;1766979;81;20995;-78
2022/05/08 01:12:34;;;;;;;4.28;2.22;;;;;;;14.31;42.94;100059.05;1771130;81;21503;-77
2022/05/08 01:15:21;;;;;;;6.55;2.62;;;;;;;14.29;43.12;100055.23;1767585;81;20971;-80
2022/05/08 01:17:52;;;;;;;9.30;2.92;;;;;;;14.26;43.06;100047.58;1771608;81;21055;-80
2022/05/08 01:20:35;;;;;;;8.60;2.92;;;;;;;14.26;43.02;100050.35;1770667;81;21540;-77
2022/05/08 01:23:15;;;;;;;5.72;2.67;;;;;;;14.22;43.09;100052.16;1771252;81;20907;-75
2022/05/08 01:25:54;;;;;;;12.00;2.52;;;;;;;14.20;43.21;100049.71;1761912;81;20928;-77
2022/05/08 01:28:25;;;;;;;4.33;2.75;;;;;;;14.22;43.16;100048.00;1770569;81;20903;-77
2022/05/08 01:30:58;;;;;;;7.33;2.62;;;;;;;14.19;43.24;100047.28;1772157;80;21017;-76
2022/05/08 01:33:28;;;;;;;5.65;2.55;;;;;;;14.17;43.35;100039.86;1770444;81;21491;-78
2022/05/08 01:36:03;;;;;;;5.53;2.50;;;;;;;14.14;43.50;100046.07;1768145;81;21622;-78
2022/05/08 01:38:33;;;;;;;9.23;2.85;;;;;;;14.12;43.54;100043.64;1768033;81;20999;-73
2022/05/08 01:41:04;;;;;;;7.47;2.80;;;;;;;14.10;43.60;100043.14;1769956;81;21019;-75
2022/05/08 01:43:36;;;;;;;7.92;2.83;;;;;;;14.07;43.80;100039.66;1741921;81;21073;-79
2022/05/08 01:46:14;;;;;;;8.38;2.55;;;;;;;14.05;43.79;100040.55;1768284;81;20919;-77
2022/05/08 01:48:49;;;;;;;6.78;2.30;;;;;;;14.00;43.93;100039.58;1771890;80;21455;-78
2022/05/08 01:51:29;;;;;;;8.03;2.37;;;;;;;13.98;44.04;100034.14;1769331;81;21031;-75
2022/05/08 01:54:00;;;;;;;5.58;2.47;;;;;;;13.97;44.10;100035.30;1802398;78;20921;-76
2022/05/08 01:56:28;;;;;;;4.90;2.08;;;;;;;13.94;44.26;100033.16;1808949;79;21229;-77
2022/05/08 01:58:56;;;;;;;3.25;2.30;;;;;;;13.92;44.29;100034.09;1808738;79;20988;-75
2022/05/08 02:01:29;;;;;;;10.38;2.75;;;;;;;13.89;44.38;100034.75;1808686;79;20818;-78
2022/05/08 02:04:01;;;;;;;4.37;2.58;;;;;;;13.80;44.48;100040.30;1802268;79;20913;-76
2022/05/08 02:06:28;;;;;;;5.83;3.52;;;;;;;13.82;44.47;100034.67;1796663;79;21001;-79
2022/05/08 02:09:04;;;;;;;10.25;2.70;;;;;;;13.81;44.45;100035.83;1784915;80;21837;-77
2022/05/08 02:11:40;;;;;;;4.47;2.62;;;;;;;13.80;44.54;100038.92;1783220;80;21015;-75
2022/05/08 02:14:08;;;;;;;5.97;2.77;;;;;;;13.77;44.55;100039.00;1784712;80;21028;-75
2022/05/08 02:16:38;;;;;;;9.43;2.90;;;;;;;13.76;44.60;100044.30;1785156;80;21426;-79
2022/05/08 02:19:14;;;;;;;8.48;3.37;;;;;;;13.74;44.69;100047.97;1785090;79;21020;-78
2022/05/08 02:21:46;;;;;;;9.90;3.85;;;;;;;13.72;44.85;100044.70;1781138;78;21751;-78
2022/05/08 02:24:27;;;;;;;8.70;3.12;;;;;;;13.70;44.88;100051.95;1780819;80;20900;-77
2022/05/08 02:26:56;;;;;;;7.08;2.83;;;;;;;13.67;45.03;100051.23;1781274;80;20960;-81
2022/05/08 02:29:25;;;;;;;6.45;3.22;;;;;;;13.66;45.20;100056.55;1781371;80;20881;-81
2022/05/08 02:32:05;;;;;;;6.35;3.22;;;;;;;13.63;45.24;100054.41;1776007;80;20849;-78
2022/05/08 02:34:35;;;;;;;4.92;2.75;;;;;;;13.59;45.33;100056.22;1780829;80;21169;-80
2022/05/08 02:37:07;;;;;;;8.18;3.75;;;;;;;13.56;45.44;100063.20;1780848;80;20853;-79
2022/05/08 02:39:33;;;;;;;5.65;2.85;;;;;;;13.52;45.64;100060.87;1781114;80;21008;-79
2022/05/08 02:42:04;;;;;;;13.83;2.50;;;;;;;13.48;45.66;100062.62;1781823;80;21020;-79
2022/05/08 02:44:41;;;;;;;7.62;2.65;;;;;;;13.46;45.80;100062.16;1774715;80;20976;-77
2022/05/08 02:47:09;;;;;;;4.75;2.37;;;;;;;13.44;45.94;100061.07;1781261;80;21556;-79
2022/05/08 02:49:36;;;;;;;7.78;2.90;;;;;;;13.42;46.00;100060.61;1781068;80;21004;-77
2022/05/08 02:52:11;;;;;;;12.93;2.72;;;;;;;13.39;46.04;100064.03;1775904;80;20960;-79
2022/05/08 02:54:42;;;;;;;7.35;3.02;;;;;;;13.37;46.16;100065.71;1781227;80;21029;-79
2022/05/08 03:00:11;;;;;;;6.42;2.62;;;;;;;13.34;46.38;100067.75;1779197;80;21873;-77
2022/05/08 03:02:42;;;;;;;15.43;2.92;;;;;;;13.32;46.63;100070.62;1775686;80;20833;-78
2022/05/08 03:05:20;;;;;;;6.30;2.42;;;;;;;13.30;46.80;100064.02;1751890;80;20902;-78
2022/05/08 03:08:04;;;;;;;5.35;2.77;;;;;;;13.31;46.77;100064.26;1749797;80;21087;-80
2022/05/08 03:11:25;;;;;;;4.78;2.67;;;;;;;13.32;46.98;100066.47;1775291;80;21024;-79
2022/05/08 03:13:01;;;;;;;4.60;2.20;;;;;;;13.32;47.09;100070.05;1772553;80;21938;-79
2022/05/08 03:15:33;;;;;;;5.87;2.33;;;;;;;13.31;47.27;100071.17;1775165;80;20956;-78
2022/05/08 03:18:05;;;;;;;7.08;2.77;;;;;;;13.26;47.21;100072.72;1753839;80;20976;-80
2022/05/08 03:20:33;;;;;;;9.05;2.60;;;;;;;13.26;47.31;100076.87;1775523;80;20957;-79
2022/05/08 03:23:01;;;;;;;3.27;2.22;;;;;;;13.26;47.35;100074.92;1772123;80;20953;-77
2022/05/08 03:25:28;;;;;;;5.30;2.72;;;;;;;13.29;47.48;100079.57;1749184;81;21023;-77
2022/05/08 03:27:59;;;;;;;7.75;2.50;;;;;;;13.28;47.50;100081.52;1766879;81;20984;-78
2022/05/08 03:30:29;;;;;;;7.28;2.77;;;;;;;13.27;47.57;100080.69;1769890;80;21358;-76
2022/05/08 03:33:06;;;;;;;5.50;2.50;;;;;;;13.30;47.55;100086.16;1769702;81;21524;-77
2022/05/08 03:35:40;;;;;;;4.37;2.67;;;;;;;13.32;47.59;100090.81;1766559;80;21419;-77
2022/05/08 03:38:10;;;;;;;7.20;3.10;;;;;;;13.32;47.66;100089.98;1771504;80;21350;-75
2022/05/08 03:40:40;;;;;;;6.62;2.80;;;;;;;13.33;47.73;100091.60;1751813;80;21032;-78
2022/05/08 03:43:08;;;;;;;7.72;2.77;;;;;;;13.36;47.74;100091.77;1769552;80;21516;-73
2022/05/08 03:45:43;;;;;;;7.00;2.77;;;;;;;13.40;47.82;100087.78;1775178;80;20940;-80
2022/05/08 03:48:21;;;;;;;8.23;2.70;;;;;;;13.43;47.98;100092.66;1772634;80;21004;-76
2022/05/08 03:50:53;;;;;;;13.03;2.95;;;;;;;13.47;48.03;100092.27;1771571;80;21526;-78
2022/05/08 03:53:19;;;;;;;5.58;2.95;;;;;;;13.49;47.88;100090.56;1775693;80;20873;-80
2022/05/08 03:55:50;;;;;;;7.47;3.08;;;;;;;13.53;47.96;100090.16;1750754;80;20957;-78
2022/05/08 03:58:21;;;;;;;9.88;2.98;;;;;;;13.57;47.98;100095.87;1768478;80;20925;-78
2022/05/08 04:00:49;;;;;;;9.28;2.72;;;;;;;13.61;48.55;100092.11;1782453;79;20889;-77
2022/05/08 04:03:21;;;;;;;7.20;3.30;;;;;;;13.62;48.37;100092.38;1765803;79;20909;-77
2022/05/08 04:05:56;;;;;;;5.85;3.20;;;;;;;13.65;48.33;100090.09;1776996;80;21027;-80
2022/05/08 04:08:32;;;;;;;6.58;2.85;;;;;;;13.70;48.50;100083.80;1780337;80;20956;-77
2022/05/08 04:11:04;;;;;;;7.33;3.22;;;;;;;13.77;48.66;100092.20;1773905;80;21526;-76
2022/05/08 04:13:39;;;;;;;8.88;3.70;;;;;;;13.84;48.54;100087.78;1780171;80;21436;-78
2022/05/08 04:16:18;;;;;;;5.70;3.10;;;;;;;13.90;48.63;100091.20;1776444;80;22081;-77
2022/05/08 04:18:48;;;;;;;7.85;3.37;;;;;;;13.98;48.77;100091.75;1779874;80;21636;-78
2022/05/08 04:21:15;;;;;;;13.48;3.65;;;;;;;14.08;48.76;100093.91;1780654;80;20957;-80
2022/05/08 04:26:36;;;;;;;9.85;3.40;;;;;;;14.18;48.83;100101.87;1776451;80;21003;-79
2022/05/08 04:29:08;;;;;;;12.60;3.45;;;;;;;14.20;48.60;100098.77;1780740;80;21100;-79
2022/05/08 04:31:41;;;;;;;11.12;3.20;;;;;;;14.22;48.75;100102.03;1780166;80;20982;-78
2022/05/08 04:34:15;;;;;;;6.85;3.10;;;;;;;14.20;48.68;100098.20;1780615;80;21388;-74
2022/05/08 04:36:53;;;;;;;13.68;3.50;;;;;;;14.19;48.80;100099.34;1776861;80;20929;-77
2022/05/08 04:39:25;;;;;;;11.70;3.42;;;;;;;14.21;48.97;100105.96;1758698;80;21000;-77
2022/05/08 04:41:59;;;;;;;14.20;3.90;;;;;;;14.23;49.01;100105.86;1778358;80;21259;-78
2022/05/08 04:44:27;;;;;;;6.55;3.40;;;;;;;14.25;48.94;100104.14;1780427;80;20924;-76
2022/05/08 04:46:58;;;;;;;10.98;3.62;;;;;;;14.28;48.93;100109.61;1778701;79;21363;-78
2022/05/08 04:49:29;;;;;;;8.78;3.83;;;;;;;14.31;49.14;100104.19;1781681;79;21548;-79
2022/05/08 04:52:03;;;;;;;9.68;4.33;;;;;;;14.36;49.04;100099.85;1771926;80;21063;-78
2022/05/08 04:54:43;;;;;;;7.47;3.45;;;;;;;14.42;48.95;100103.83;1782256;80;21427;-77
2022/05/08 04:57:10;;;;;;;9.63;4.35;;;;;;;14.47;48.78;100105.03;1782038;79;20960;-79
2022/05/08 04:59:51;;;;;;;9.25;3.45;;;;;;;14.52;48.69;100109.61;1780781;80;21036;-77
2022/05/08 05:02:17;;;;;;;8.15;3.30;;;;;;;14.57;48.80;100103.28;1764430;80;21370;-78
2022/05/08 05:04:45;;;;;;;10.60;4.10;;;;;;;14.63;48.57;100104.48;1782941;80;20981;-79
2022/05/08 05:07:16;;;;;;;9.30;3.95;;;;;;;14.62;48.33;100107.02;1776685;80;20923;-78
2022/05/08 05:09:43;;;;;;;11.83;3.95;;;;;;;14.64;48.49;100111.08;1764460;80;20937;-79
2022/05/08 05:12:17;;;;;;;8.25;4.03;;;;;;;14.68;48.32;100105.12;1779349;79;20974;-76
2022/05/08 05:14:55;;;;;;;6.65;3.67;;;;;;;14.73;48.55;100113.25;1767645;80;20945;-78
2022/05/08 05:20:13;;;;;;;15.18;4.50;;;;;;;14.81;48.16;100115.76;1772752;80;20986;-80
2022/05/08 05:23:13;;;;;;;13.68;4.28;;;;;;;14.84;48.41;100102.60;1773153;80;20938;-79
2022/05/08 05:25:56;;;;;;;8.18;4.00;;;;;;;14.88;48.12;100111.63;1773694;80;20905;-78
2022/05/08 05:28:35;;;;;;;12.75;4.92;;;;;;;14.91;48.37;100112.38;1770296;80;21072;-79
2022/05/08 05:31:11;;;;;;;14.90;4.20;;;;;;;14.95;48.47;100116.91;1774249;80;21482;-80
2022/05/08 05:33:46;;;;;;;13.93;4.67;;;;;;;14.99;48.03;100115.67;1776144;80;21215;-79
2022/05/08 05:36:13;;;;;;;;;;;;;;;15.01;48.10;100111.97;1783170;80;21056;-78
2022/05/08 05:38:50;;;;;;;14.58;5.15;;;;;;;15.04;48.06;100111.31;1777649;79;20132;-79
2022/05/08 05:41:34;;;;;;;11.87;4.47;;;;;;;15.08;48.21;100112.25;1770232;80;20930;-79
2022/05/08 05:44:35;;;;;;;9.83;4.90;;;;;;;15.14;48.51;100113.44;1775164;80;21194;-79
2022/05/08 05:50:31;;;;;;;9.45;4.40;;;;;;;15.36;48.64;100114.27;1662794;84;21036;-78
2022/05/08 05:53:06;;;;;;;9.88;4.65;;;;;;;15.45;47.88;100112.25;1753182;79;21390;-82
2022/05/08 05:55:37;;;;;;;8.75;3.98;;;;;;;15.54;48.12;100108.02;1782402;79;21449;-77
2022/05/08 05:58:04;;;;;;;9.95;4.28;;;;;;;15.65;48.15;100109.78;1782942;80;20917;-81
2022/05/08 06:00:32;;;;;;;10.68;4.47;;;;;;;15.74;47.64;100113.31;1782397;80;21458;-74
2022/05/08 06:03:07;;;;;;;14.03;4.40;;;;;;;15.83;47.69;100113.23;1782403;80;20990;-80
2022/05/08 06:05:36;;;;;;;8.08;4.00;;;;;;;15.94;47.21;100110.25;1782578;79;20958;-81
2022/05/08 06:08:22;;;;;;;7.33;3.98;;;;;;;16.04;47.24;100111.81;1782551;80;21020;-80
2022/05/08 06:11:16;;;;;;;6.42;3.62;;;;;;;16.14;47.35;100115.30;1764500;80;20939;-82
2022/05/08 06:13:56;;;;;;;11.08;4.87;;;;;;;16.32;47.68;100120.67;1760227;81;20962;-81
2022/05/08 06:16:26;;;;;;;11.88;4.67;;;;;;;16.45;46.87;100120.92;1766191;81;21528;-80
2022/05/08 06:19:11;;;;;;;8.93;4.50;;;;;;;16.50;46.83;100120.70;1697023;84;21004;-78
2022/05/08 06:22:02;;;;;;;16.95;4.90;;;;;;;16.54;46.29;100123.04;1721926;82;21557;-79
2022/05/08 06:24:45;;;;;;;14.75;4.62;;;;;;;16.58;46.79;100120.95;1722381;82;20925;-81
2022/05/08 06:27:38;;;;;;;8.20;4.15;;;;;;;16.61;46.67;100121.64;1723697;82;20947;-82
2022/05/08 06:30:06;;;;;;;14.40;4.60;;;;;;;16.63;46.37;100115.95;1725488;82;20930;-79
2022/05/08 06:32:59;;;;;;;14.25;4.58;;;;;;;16.66;46.24;100123.62;1733334;82;21048;-80
2022/05/08 06:35:29;;;;;;;17.82;4.53;;;;;;;16.71;46.75;100120.36;1730528;82;20966;-81
2022/05/08 06:38:24;;;;;;;10.05;4.30;;;;;;;16.75;46.33;100119.31;1702211;83;20930;-81
2022/05/08 06:40:58;;;;;;;14.63;4.72;;;;;;;16.78;46.81;100117.25;1722376;83;21905;-80
2022/05/08 06:43:24;;;;;;;15.43;4.67;;;;;;;16.83;46.74;100118.16;1723484;83;21079;-79
2022/05/08 06:45:52;;;;;;;13.32;4.87;;;;;;;16.85;46.39;100115.28;1723122;83;21017;-81
2022/05/08 06:48:27;;;;;;;9.20;4.67;;;;;;;16.87;46.01;100118.50;1719803;83;21030;-77
2022/05/08 06:50:54;;;;;;;14.90;4.65;;;;;;;16.86;45.55;100111.89;1723049;83;20938;-78
2022/05/08 06:53:22;;;;;;;11.88;4.45;;;;;;;16.94;46.25;100115.13;1723601;83;21112;-81
2022/05/08 06:56:00;;;;;;;7.60;4.35;;;;;;;17.06;46.12;100119.08;1722895;83;20934;-81
2022/05/08 06:58:29;;;;;;;11.97;4.72;;;;;;;17.21;45.55;100112.83;1722919;83;21010;-79
2022/05/08 07:03:49;;;;;;;15.25;5.20;;;;;;;17.61;46.10;100115.95;1723288;83;21038;-78
2022/05/08 07:06:19;;;;;;;6.95;4.20;;;;;;;17.73;44.42;100113.12;1718226;83;21043;-79
2022/05/08 07:09:02;;;;;;;8.25;4.33;;;;;;;17.74;44.11;100113.34;1722610;83;21041;-80
2022/05/08 07:11:49;;;;;;;8.40;4.60;;;;;;;17.72;44.36;100115.69;1639732;87;21516;-79
2022/05/08 07:14:46;;;;;;;14.68;4.15;;;;;;;17.73;44.70;100114.52;1635256;83;20990;-81
2022/05/08 07:17:32;;;;;;;;;;;;;;;17.83;45.08;100113.77;1700892;83;21050;-78
2022/05/08 07:20:45;;;;;;;8.08;4.17;;;;;;;18.03;45.28;100118.92;1705962;83;20465;-80
2022/05/08 07:23:30;;;;;;;16.65;4.10;;;;;;;18.23;45.55;100105.94;1716861;83;20891;-82
2022/05/08 07:26:22;;;;;;;9.60;4.33;;;;;;;18.48;43.65;100111.33;1723519;83;21550;-80
2022/05/08 07:29:06;;;;;;;8.83;4.83;;;;;;;18.61;43.55;100104.27;1652442;86;21076;-81
2022/05/08 07:32:01;;;;;;;14.23;4.45;;;;;;;18.70;43.78;100101.27;1677841;84;20955;-80
2022/05/08 07:37:37;;;;;;;10.55;4.17;;;;;;;18.71;43.32;100106.48;1716517;83;21416;-78
2022/05/08 07:40:07;;;;;;;15.32;4.60;;;;;;;18.65;43.88;100112.13;1719418;83;20989;-80
2022/05/08 07:42:35;;;;;;;16.15;4.67;;;;;;;18.61;43.94;100109.86;1722987;83;20975;-80
2022/05/08 07:45:33;;;;;;;10.35;4.58;;;;;;;18.58;43.28;100114.73;1719571;83;21010;-80
2022/05/08 07:48:03;;;;;;;14.90;5.30;;;;;;;18.52;43.48;100116.19;1721240;83;21486;-79
2022/05/08 07:50:30;;;;;;;13.58;5.20;;;;;;;18.46;42.38;100119.82;1723107;83;21037;-80
2022/05/08 07:55:58;;;;;;;11.30;4.50;;;;;;;18.32;42.14;100116.89;1713968;83;21090;-81
2022/05/08 08:04:41;;;;;;;10.23;5.30;;;;;;;18.30;42.04;100118.44;1721329;83;20922;-81
2022/05/08 08:07:09;;;;;;;13.62;5.58;;;;;;;18.32;42.48;100118.89;1723413;83;20942;-81
2022/05/08 08:09:40;;;;;;;12.93;5.50;;;;;;;18.36;42.77;100115.59;1719613;83;21025;-79
2022/05/08 08:12:16;;;;;;;9.48;4.58;;;;;;;18.39;43.10;100119.66;1719942;83;20998;-80
2022/05/08 08:14:59;;;;;;;12.40;4.90;;;;;;;18.51;42.56;100117.38;1723577;83;21784;-83
2022/05/08 08:17:31;;;;;;;10.63;4.58;;;;;;;18.67;41.79;100121.53;1723571;83;21521;-82
2022/05/08 08:19:59;;;;;;;7.22;4.53;;;;;;;18.82;41.90;100119.89;1723096;83;21148;-79
2022/05/08 08:22:29;;;;;;;12.35;5.25;;;;;;;18.95;40.97;100122.02;1723414;83;20922;-79
2022/05/08 08:24:59;;;;;;;11.57;4.58;;;;;;;19.00;40.75;100120.33;1723530;83;21021;-77
2022/05/08 08:27:30;;;;;;;13.25;4.60;;;;;;;19.04;41.35;100120.42;1723438;83;21059;-81
2022/05/08 08:30:03;;;;;;;13.93;4.85;;;;;;;19.09;40.53;100115.34;1705873;83;21542;-79
2022/05/08 08:33:01;;;;;;;11.18;4.37;;;;;;;19.07;40.69;100123.27;1719956;83;20914;-80
2022/05/08 08:35:31;;;;;;;16.77;4.40;;;;;;;19.03;40.46;100121.00;1723216;83;20990;-78
2022/05/08 08:37:59;;;;;;;13.78;4.70;;;;;;;19.00;41.15;100120.91;1723624;83;20994;-82
2022/05/08 08:43:26;;;;;;;11.57;4.55;;;;;;;19.16;41.98;100118.09;1722095;83;21033;-81
2022/05/08 08:48:43;;;;;;;12.95;5.80;;;;;;;19.53;40.57;100116.30;1723424;83;21002;-79
2022/05/08 08:51:24;;;;;;;9.55;4.60;;;;;;;19.73;40.08;100113.52;1722667;83;20886;-79
2022/05/08 08:54:01;;;;;;;11.10;4.08;;;;;;;19.89;39.25;100111.23;1698291;83;21001;-80
2022/05/08 08:56:33;;;;;;;10.23;4.97;;;;;;;20.06;41.02;100109.98;1702392;83;21002;-78
2022/05/08 08:59:07;;;;;;;11.55;5.00;;;;;;;20.29;39.85;100116.17;1723252;83;20930;-81
2022/05/08 09:01:48;;;;;;;13.43;3.80;;;;;;;20.41;38.85;100110.40;1733523;82;21023;-84
2022/05/08 09:04:18;;;;;;;14.35;4.92;;;;;;;20.50;37.87;100106.53;1719476;82;20969;-80
2022/05/08 09:06:50;;;;;;;11.57;5.08;;;;;;;20.57;37.89;100110.86;1743373;81;21770;-81
2022/05/08 09:09:26;;;;;;;15.15;5.30;;;;;;;20.64;37.70;100100.38;1738758;82;20928;-80
2022/05/08 09:12:03;;;;;;;10.38;5.10;;;;;;;20.71;37.66;100103.88;1738155;82;21028;-81
2022/05/08 09:14:36;;;;;;;10.80;5.12;;;;;;;20.80;38.28;100094.61;1718027;82;21047;-81
2022/05/08 09:17:08;;;;;;;10.15;4.65;;;;;;;20.95;38.07;100091.45;1724549;82;20839;-80
2022/05/08 09:19:41;;;;;;;8.50;4.10;;;;;;;21.02;38.20;100092.96;1722942;83;21219;-80
2022/05/08 09:22:20;;;;;;;10.60;4.45;;;;;;;21.05;37.27;100085.81;1715423;83;20922;-80
2022/05/08 09:24:52;;;;;;;15.85;5.03;;;;;;;21.11;37.75;100085.69;1722731;83;20938;-81
2022/05/08 09:27:19;;;;;;;14.05;4.47;;;;;;;21.27;37.29;100083.30;1723784;83;20950;-81
2022/05/08 09:29:48;;;;;;;20.92;6.00;;;;;;;21.34;37.11;100086.17;1722840;83;20887;-80
2022/05/08 09:32:41;;;;;;;9.13;4.50;;;;;;;21.30;36.44;100081.72;1723145;83;21927;-80
2022/05/08 09:35:10;;;;;;;9.23;4.90;;;;;;;21.21;36.54;100082.00;1704087;83;20998;-82
2022/05/08 09:37:58;;;;;;;17.37;5.47;;;;;;;21.09;36.70;100079.66;1723378;82;21573;-83
2022/05/08 09:40:27;;;;;;;8.65;4.25;;;;;;;20.97;36.61;100089.67;1722960;83;20919;-83
2022/05/08 09:45:54;;;;;;;10.43;5.33;;;;;;;20.67;37.64;100083.64;1722269;83;21151;-81
2022/05/08 09:48:21;;;;;;;18.90;5.50;;;;;;;20.61;37.94;100095.53;1722951;83;21006;-84
2022/05/08 09:50:48;;;;;;;11.28;4.28;;;;;;;20.58;37.93;100087.27;1722845;83;21549;-82
2022/05/08 09:53:20;;;;;;;10.85;4.45;;;;;;;20.61;38.45;100085.73;1728337;82;20968;-81
2022/05/08 09:55:48;;;;;;;9.20;4.30;;;;;;;20.71;38.12;100087.08;1743987;82;20977;-82
2022/05/08 09:58:18;;;;;;;7.53;4.62;;;;;;;20.84;39.81;100080.66;1738435;82;21081;-80
2022/05/08 10:00:52;;;;;;;10.60;5.30;;;;;;;21.01;39.37;100083.54;1733420;82;21013;-82
2022/05/08 10:03:23;;;;;;;9.68;4.50;;;;;;;21.20;37.34;100081.21;1739418;82;21056;-82
2022/05/08 10:05:49;;;;;;;17.45;5.37;;;;;;;21.22;36.22;100068.22;1744083;82;21022;-79
2022/05/08 10:08:24;;;;;;;11.28;5.03;;;;;;;21.15;35.95;100066.13;1715630;82;21091;-80
2022/05/08 10:14:00;;;;;;;12.47;4.65;;;;;;;21.32;36.79;100070.36;1744840;82;21069;-81
2022/05/08 10:17:15;;;;;;;10.98;5.03;;;;;;;21.47;36.46;100067.13;1744334;82;21015;-80
2022/05/08 10:19:52;;;;;;;11.18;5.05;;;;;;;21.59;37.11;100068.88;1582755;88;21546;-79
2022/05/08 10:22:22;;;;;;;14.23;4.10;;;;;;;21.76;37.33;100058.23;1624810;88;21042;-80
2022/05/08 10:25:15;;;;;;;21.97;4.40;;;;;;;21.78;36.80;100058.67;1623128;88;21137;-81
2022/05/08 10:28:06;;;;;;;6.42;4.15;;;;;;;21.72;36.18;100057.37;1641049;87;21115;-82
2022/05/08 10:30:38;;;;;;;10.45;4.90;;;;;;;21.66;36.32;100054.13;1671318;79;21016;-81
2022/05/08 10:33:07;;;;;;;12.88;4.42;;;;;;;21.75;37.10;100052.43;1805037;79;21560;-83
2022/05/08 10:35:34;;;;;;;11.60;4.87;;;;;;;21.91;36.19;100051.39;1808833;79;22227;-84
2022/05/08 10:38:22;;;;;;;10.13;5.28;;;;;;;21.99;36.13;100046.09;1778052;79;21035;-83
2022/05/08 10:40:56;;;;;;;10.80;5.45;;;;;;;21.99;34.60;100046.09;1808127;79;20950;-81
2022/05/08 10:43:28;;;;;;;13.13;4.90;;;;;;;21.93;35.05;100042.00;1809003;79;21517;-81
2022/05/08 10:46:33;;;;;;;10.60;4.45;;;;;;;21.96;34.59;100040.64;1801149;79;20972;-81
2022/05/08 10:49:02;;;;;;;12.00;4.80;;;;;;;21.95;34.21;100034.02;1808592;79;21090;-82
2022/05/08 10:51:29;;;;;;;12.78;5.30;;;;;;;21.91;34.36;100024.16;1808861;79;21220;-82
2022/05/08 10:54:11;;;;;;;9.28;4.35;;;;;;;21.83;34.35;100026.10;1808848;79;21440;-80
2022/05/08 11:06:00;;;;;;;7.00;4.50;;;;;;;21.60;33.90;100017.22;1726615;82;20902;-82
2022/05/08 11:08:31;;;;;;;8.48;4.58;;;;;;;21.57;34.24;100005.96;1739386;82;20925;-81
2022/05/08 11:11:09;;;;;;;7.45;4.08;;;;;;;21.62;34.16;100003.63;1741560;82;21504;-80
2022/05/08 11:13:44;;;;;;;11.73;4.97;;;;;;;21.68;33.95;100006.09;1743927;82;20949;-80
2022/05/08 11:16:42;;;;;;;9.90;4.95;;;;;;;21.70;33.51;99999.50;1744553;80;20982;-76
2022/05/08 11:19:03;;;;;;;12.95;5.17;;;;;;;21.68;32.83;99999.08;1739213;82;21258;-81
2022/05/08 11:21:33;;;;;;;10.32;5.30;;;;;;;21.61;32.75;99998.41;1740126;82;20981;-82
2022/05/08 11:24:42;;;;;;;7.45;4.15;;;;;;;21.52;32.62;99993.92;1719552;82;20989;-82
2022/05/08 11:27:15;;;;;;;12.00;4.78;;;;;;;21.48;33.03;99990.84;1737381;82;21055;-82
2022/05/08 11:38:50;;;;;;;8.63;4.00;;;;;;;21.24;33.70;99980.41;1718150;82;21494;-82
2022/05/08 11:41:33;;;;;;;10.70;4.53;;;;;;;21.22;33.51;99982.16;1766265;80;21082;-75
2022/05/08 11:44:27;;;;;;;12.07;4.73;;;;;;;21.23;34.25;99972.59;1752784;80;21110;-80
2022/05/08 11:47:08;;;;;;;12.58;4.35;;;;;;;21.27;33.52;99972.02;1744358;80;22025;-82
2022/05/08 11:49:40;;;;;;;8.28;4.47;;;;;;;21.37;33.75;99968.33;1744342;80;21726;-80
2022/05/08 11:52:08;;;;;;;10.38;4.33;;;;;;;21.57;33.25;99965.32;1736571;80;21142;-80
2022/05/08 11:54:42;;;;;;;8.43;4.55;;;;;;;21.75;33.22;99962.09;1694543;82;21550;-78
2022/05/08 11:57:19;;;;;;;9.40;4.67;;;;;;;21.97;32.72;99955.91;1752371;80;21460;-78
2022/05/08 12:00:14;;;;;;;7.45;3.98;;;;;;;22.21;32.60;99954.47;1751033;80;21324;-76
2022/05/08 12:02:54;;;;;;;8.30;4.20;;;;;;;22.36;31.61;99955.40;1746670;80;20984;-77
2022/05/08 12:11:03;;;;;;;5.90;4.12;;;;;;;22.66;32.18;99945.16;1744286;79;21305;-77
2022/05/08 12:16:20;;;;;;;11.35;4.85;;;;;;;23.01;30.42;99945.72;1773922;79;20126;-79
2022/05/08 12:19:15;;;;;;;19.65;8.83;;;;;;;22.90;30.06;99939.23;1782733;78;21019;-79
2022/05/08 12:22:18;;;;;;;11.10;4.45;;;;;;;22.93;30.66;99938.44;1777975;78;21544;-79
2022/05/08 12:24:50;;;;;;;9.50;4.40;;;;;;;23.04;30.77;99938.49;1779822;79;20928;-80
2022/05/08 12:27:27;;;;;;;15.35;4.12;;;;;;;23.15;30.87;99935.73;1766604;80;20973;-78
2022/05/08 12:30:13;;;;;;;13.98;4.17;;;;;;;23.20;30.38;99930.51;1777591;79;20914;-79
2022/05/08 12:32:41;;;;;;;18.15;4.55;;;;;;;23.16;29.78;99940.95;1774660;79;21505;-81
2022/05/08 12:35:19;;;;;;;11.30;4.78;;;;;;;23.02;29.87;99934.67;1779708;79;20965;-81
2022/05/08 12:37:53;;;;;;;8.65;4.20;;;;;;;22.92;30.37;99930.64;1788493;79;21032;-80
2022/05/08 12:40:25;;;;;;;7.12;4.35;;;;;;;22.89;30.37;99932.83;1777334;79;21248;-82
2022/05/08 12:43:03;;;;;;;6.58;4.35;;;;;;;22.86;31.01;99931.61;1727735;80;20861;-79
2022/05/08 12:45:37;;;;;;;13.75;4.33;;;;;;;22.92;30.98;99929.23;1720753;81;20970;-81
2022/05/08 12:48:11;;;;;;;8.90;3.77;;;;;;;22.95;30.72;99925.63;1720718;81;21088;-77
2022/05/08 12:50:51;;;;;;;9.95;4.60;;;;;;;22.82;30.73;99929.40;1782016;78;20957;-78
2022/05/08 12:53:19;;;;;;;8.23;4.60;;;;;;;22.75;30.75;99923.74;1791286;78;21631;-79
2022/05/08 12:56:02;;;;;;;9.30;4.95;;;;;;;22.63;31.09;99929.69;1764319;78;21011;-81
2022/05/08 13:01:41;;;;;;;11.83;4.25;;;;;;;22.34;31.17;99931.71;1782782;79;21004;-81
2022/05/08 13:04:23;;;;;;;13.60;3.98;;;;;;;22.18;31.21;99938.42;1772940;78;21094;-77
2022/05/08 13:06:56;;;;;;;8.90;4.47;;;;;;;22.03;31.56;99944.53;1789906;78;21432;-78
2022/05/08 13:09:31;;;;;;;15.13;4.05;;;;;;;21.91;32.35;99949.84;1778366;78;21057;-77
2022/05/08 13:12:01;;;;;;;10.88;5.97;;;;;;;21.75;33.95;99948.69;1773706;78;21557;-77
2022/05/08 13:14:29;;;;;;;9.20;4.12;;;;;;;21.48;35.07;99950.21;1772655;79;21135;-78